Time;durP1;ratioP1;P1;durP2;ratioP2;P2;SDS_P1;SDS_P2;PMS_P1;PMS_P2;Temp;Humidity;BMP_temperature;BMP_pressure;BME280_temperature;BME280_humidity;BME280_pressure;Samples;Min_cycle;Max_cycle;Signal;HPM_P1;HPM_P2
2021/11/07 00:00:24;;;;;;;11.43;3.22;;;10.60;99.90;;;;;;5096894;28;20029;-76
2021/11/07 00:08:55;;;;;;;10.15;4.63;;;10.60;99.90;;;;;;5096762;28;20039;-76
2021/11/07 00:11:26;;;;;;;8.82;3.80;;;10.50;99.90;;;;;;5093395;28;20119;-79
2021/11/07 00:13:52;;;;;;;9.27;4.30;;;10.60;99.90;;;;;;5095045;28;20031;-78
2021/11/07 00:16:38;;;;;;;6.88;4.07;;;10.60;99.90;;;;;;5096607;28;20040;-78
2021/11/07 00:21:49;;;;;;;11.35;4.05;;;10.60;99.90;;;;;;5096262;28;20035;-78
2021/11/07 00:26:55;;;;;;;8.23;4.40;;;10.60;99.90;;;;;;5096700;28;20028;-78
2021/11/07 00:29:26;;;;;;;7.28;3.53;;;10.60;99.90;;;;;;5094845;28;20024;-80
2021/11/07 00:32:21;;;;;;;6.60;3.50;;;10.60;99.90;;;;;;5096620;28;20478;-78
2021/11/07 00:35:08;;;;;;;7.47;3.88;;;10.60;99.90;;;;;;5095589;28;20083;-77
2021/11/07 00:47:59;;;;;;;6.78;4.15;;;10.60;99.90;;;;;;5096067;28;20093;-79
2021/11/07 00:50:28;;;;;;;7.57;3.75;;;10.60;99.90;;;;;;5096545;28;20103;-79
2021/11/07 00:56:26;;;;;;;7.40;3.88;;;10.60;99.90;;;;;;5095588;28;20504;-77
2021/11/07 00:58:37;;;;;;;7.10;3.50;;;10.70;99.90;;;;;;5087314;28;20490;-79
2021/11/07 01:01:07;;;;;;;6.60;3.35;;;10.60;99.90;;;;;;5094196;28;20020;-77
2021/11/07 01:03:33;;;;;;;8.38;3.15;;;10.60;99.90;;;;;;5095753;28;20481;-77
2021/11/07 01:05:59;;;;;;;8.40;3.53;;;10.60;99.90;;;;;;5094354;28;20028;-77
2021/11/07 01:08:24;;;;;;;6.10;3.72;;;10.70;99.90;;;;;;5094992;28;20099;-77
2021/11/07 01:10:50;;;;;;;8.00;3.60;;;10.70;99.90;;;;;;5094124;28;20393;-78
2021/11/07 01:13:17;;;;;;;7.13;3.28;;;10.70;99.90;;;;;;5095408;28;20103;-77
2021/11/07 01:15:42;;;;;;;6.85;3.42;;;10.70;99.90;;;;;;5095722;28;20043;-76
2021/11/07 01:18:08;;;;;;;5.57;2.90;;;10.70;99.90;;;;;;5095192;28;20497;-77
2021/11/07 01:20:34;;;;;;;5.43;2.92;;;10.80;99.90;;;;;;5095376;28;20099;-78
2021/11/07 01:23:46;;;;;;;7.78;3.13;;;10.70;99.90;;;;;;5095302;28;20059;-78
2021/11/07 01:25:53;;;;;;;7.65;2.92;;;10.70;99.90;;;;;;5086782;28;20048;-78
2021/11/07 01:28:20;;;;;;;6.78;3.00;;;10.70;99.90;;;;;;5093641;28;20035;-79
2021/11/07 01:30:54;;;;;;;5.60;2.90;;;10.80;99.90;;;;;;5093814;28;20546;-78
2021/11/07 01:33:28;;;;;;;7.55;2.85;;;10.80;99.90;;;;;;5095291;28;20145;-79
2021/11/07 01:38:29;;;;;;;5.18;3.15;;;10.80;99.90;;;;;;5095529;28;20027;-78
2021/11/07 01:41:16;;;;;;;5.90;3.00;;;10.80;99.90;;;;;;5095548;28;20027;-76
2021/11/07 01:43:43;;;;;;;5.60;2.90;;;10.80;99.90;;;;;;5095175;28;20488;-79
2021/11/07 01:46:26;;;;;;;5.82;2.60;;;10.80;99.90;;;;;;5094796;28;20097;-79
2021/11/07 01:51:29;;;;;;;6.32;2.70;;;10.90;99.90;;;;;;5094812;28;20030;-77
2021/11/07 01:54:06;;;;;;;4.75;2.40;;;10.90;99.90;;;;;;5095195;28;20024;-78
2021/11/07 01:56:32;;;;;;;5.47;2.78;;;10.90;99.90;;;;;;5093169;28;20447;-78
2021/11/07 01:58:58;;;;;;;5.50;2.88;;;10.90;99.90;;;;;;5094939;28;20024;-78
2021/11/07 02:01:25;;;;;;;7.28;3.10;;;10.90;99.90;;;;;;5094588;28;20367;-79
2021/11/07 02:03:52;;;;;;;8.85;3.00;;;10.90;99.90;;;;;;5094518;28;20028;-79
2021/11/07 02:06:18;;;;;;;8.43;3.08;;;10.90;99.90;;;;;;5094494;28;20436;-78
2021/11/07 02:08:45;;;;;;;6.82;3.05;;;10.90;99.90;;;;;;5094331;28;20109;-77
2021/11/07 02:11:11;;;;;;;4.47;2.80;;;10.80;99.90;;;;;;5093072;28;20020;-77
2021/11/07 02:13:37;;;;;;;5.32;2.30;;;10.80;99.90;;;;;;5094494;28;20040;-75
2021/11/07 02:16:03;;;;;;;5.75;2.55;;;10.80;99.90;;;;;;5094118;28;20031;-78
2021/11/07 02:18:29;;;;;;;9.60;2.53;;;10.80;99.90;;;;;;5094236;28;20131;-77
2021/11/07 02:20:55;;;;;;;6.93;2.65;;;10.80;99.90;;;;;;5093312;28;20023;-79
2021/11/07 02:23:23;;;;;;;4.30;2.40;;;10.80;99.90;;;;;;5094390;28;20059;-77
2021/11/07 02:25:53;;;;;;;5.97;2.47;;;10.80;99.90;;;;;;5092809;28;20563;-80
2021/11/07 02:28:35;;;;;;;6.47;2.88;;;10.80;99.90;;;;;;5094029;28;20107;-78
2021/11/07 02:31:02;;;;;;;5.65;2.00;;;10.80;99.90;;;;;;5094552;28;20024;-78
2021/11/07 02:33:29;;;;;;;5.38;2.15;;;10.80;99.90;;;;;;5094412;28;20111;-78
2021/11/07 02:35:55;;;;;;;3.70;2.30;;;10.80;99.90;;;;;;5094186;28;20032;-77
2021/11/07 02:38:20;;;;;;;5.10;2.33;;;10.90;99.90;;;;;;5093891;28;20020;-77
2021/11/07 02:40:46;;;;;;;7.22;2.60;;;10.90;99.90;;;;;;5094143;28;20117;-79
2021/11/07 02:43:12;;;;;;;4.82;2.33;;;10.90;99.90;;;;;;5092516;28;20561;-79
2021/11/07 02:45:38;;;;;;;7.60;2.53;;;10.90;99.90;;;;;;5093988;28;20028;-77
2021/11/07 02:48:04;;;;;;;6.07;2.65;;;10.90;99.90;;;;;;5093688;28;20059;-78
2021/11/07 02:50:30;;;;;;;7.93;2.83;;;10.90;99.90;;;;;;5094190;28;20051;-78
2021/11/07 02:52:56;;;;;;;6.00;2.63;;;10.90;99.90;;;;;;5092299;28;20055;-78
2021/11/07 02:55:23;;;;;;;8.50;2.78;;;10.90;99.90;;;;;;5093623;28;20043;-78
2021/11/07 02:57:53;;;;;;;5.75;2.85;;;10.90;99.90;;;;;;5093547;28;20539;-77
2021/11/07 03:00:19;;;;;;;9.07;3.28;;;10.90;99.90;;;;;;5093546;28;20020;-77
2021/11/07 03:02:45;;;;;;;8.77;2.95;;;10.90;99.90;;;;;;5093801;28;20028;-77
2021/11/07 03:05:12;;;;;;;7.05;2.80;;;10.90;99.90;;;;;;5093434;28;20149;-79
2021/11/07 03:07:41;;;;;;;8.45;2.78;;;10.90;99.90;;;;;;5093398;28;20048;-76
2021/11/07 03:10:08;;;;;;;6.50;3.15;;;10.90;99.90;;;;;;5093398;28;20028;-78
2021/11/07 03:12:34;;;;;;;6.20;2.85;;;10.90;99.90;;;;;;5093324;28;20027;-76
2021/11/07 03:15:00;;;;;;;6.63;2.63;;;10.90;99.90;;;;;;5093367;28;20385;-77
2021/11/07 03:17:27;;;;;;;11.35;3.00;;;10.90;99.90;;;;;;5093588;28;20473;-78
2021/11/07 03:19:53;;;;;;;7.57;3.40;;;10.90;99.90;;;;;;5093131;28;20075;-80
2021/11/07 03:22:27;;;;;;;5.53;2.78;;;10.90;99.90;;;;;;5093253;28;20504;-78
2021/11/07 03:24:54;;;;;;;6.35;2.67;;;10.90;99.90;;;;;;5091729;28;20074;-77
2021/11/07 03:27:40;;;;;;;4.78;2.78;;;10.90;99.90;;;;;;5093264;28;20074;-79
2021/11/07 03:30:26;;;;;;;6.07;2.50;;;10.90;99.90;;;;;;5091699;28;20029;-78
2021/11/07 03:32:54;;;;;;;6.07;2.40;;;10.90;99.90;;;;;;5095193;28;20123;-77
2021/11/07 03:35:20;;;;;;;4.68;3.17;;;10.90;99.90;;;;;;5097633;28;20027;-77
2021/11/07 03:37:56;;;;;;;5.60;2.70;;;11.00;99.90;;;;;;5096014;28;20020;-75
2021/11/07 03:40:26;;;;;;;6.80;2.88;;;11.00;99.90;;;;;;5097561;28;20478;-77
2021/11/07 03:42:52;;;;;;;7.43;2.50;;;11.00;99.90;;;;;;5097535;28;20024;-77
2021/11/07 03:45:20;;;;;;;10.65;2.97;;;11.00;99.90;;;;;;5097197;28;20026;-78
2021/11/07 03:47:46;;;;;;;6.78;2.85;;;11.00;99.90;;;;;;5097766;28;20077;-78
2021/11/07 03:50:12;;;;;;;8.85;3.08;;;11.00;99.90;;;;;;5097136;28;20020;-78
2021/11/07 03:52:38;;;;;;;6.00;2.90;;;11.00;99.90;;;;;;5097006;28;20035;-79
2021/11/07 03:55:06;;;;;;;5.57;2.97;;;11.10;99.90;;;;;;5097001;28;20020;-79
2021/11/07 03:57:32;;;;;;;9.20;3.03;;;11.10;99.90;;;;;;5097144;28;20370;-79
2021/11/07 03:59:57;;;;;;;8.82;3.75;;;11.10;99.90;;;;;;5095623;28;20024;-78
2021/11/07 04:02:23;;;;;;;9.07;2.75;;;11.10;99.90;;;;;;5096875;28;20069;-77
2021/11/07 04:04:49;;;;;;;7.97;2.83;;;11.10;99.90;;;;;;5097055;28;20027;-77
2021/11/07 04:07:15;;;;;;;8.35;2.90;;;11.10;99.90;;;;;;5096779;28;20082;-79
2021/11/07 04:09:41;;;;;;;6.85;2.85;;;11.20;99.90;;;;;;5096607;28;20397;-77
2021/11/07 04:12:07;;;;;;;6.47;2.80;;;11.20;99.90;;;;;;5096668;28;20020;-76
2021/11/07 04:14:34;;;;;;;11.18;3.17;;;11.20;99.90;;;;;;5096580;28;20024;-77
2021/11/07 04:17:05;;;;;;;6.68;2.90;;;11.20;99.90;;;;;;5097159;28;20161;-78
2021/11/07 04:19:31;;;;;;;6.30;2.97;;;11.20;99.90;;;;;;5096191;28;20065;-78
2021/11/07 04:22:02;;;;;;;6.72;3.10;;;11.20;99.90;;;;;;5096465;28;20069;-76
2021/11/07 04:24:28;;;;;;;7.22;2.90;;;11.20;99.90;;;;;;5096809;28;20047;-77
2021/11/07 04:26:54;;;;;;;7.38;3.05;;;11.30;99.90;;;;;;5096428;28;20479;-78
2021/11/07 04:29:20;;;;;;;7.40;3.00;;;11.30;99.90;;;;;;5096623;28;20020;-79
2021/11/07 04:31:45;;;;;;;5.93;3.00;;;11.30;99.90;;;;;;5096586;28;20034;-77
2021/11/07 04:34:11;;;;;;;9.18;2.90;;;11.30;99.90;;;;;;5096192;28;20069;-79
2021/11/07 04:36:37;;;;;;;11.32;3.28;;;11.30;99.90;;;;;;5096726;28;20024;-78
2021/11/07 04:39:03;;;;;;;4.68;2.78;;;11.30;99.90;;;;;;5096132;28;20024;-80
2021/11/07 04:41:29;;;;;;;7.75;3.10;;;11.30;99.90;;;;;;5096080;28;20535;-78
2021/11/07 04:43:55;;;;;;;6.43;2.88;;;11.30;99.90;;;;;;5095388;28;20028;-77
2021/11/07 04:46:20;;;;;;;7.30;3.03;;;11.30;99.90;;;;;;5096276;28;20032;-78
2021/11/07 04:48:48;;;;;;;6.88;3.33;;;11.30;99.90;;;;;;5095998;28;20028;-78
2021/11/07 04:51:15;;;;;;;6.43;2.55;;;11.30;99.90;;;;;;5096218;28;20067;-78
2021/11/07 04:53:40;;;;;;;7.13;3.15;;;11.40;99.90;;;;;;5095835;28;20021;-80
2021/11/07 04:56:06;;;;;;;4.47;2.78;;;11.30;99.90;;;;;;5095855;28;20028;-80
2021/11/07 04:58:33;;;;;;;7.88;3.33;;;11.40;99.90;;;;;;5094436;28;20020;-76
2021/11/07 05:00:58;;;;;;;7.07;3.05;;;11.30;99.90;;;;;;5095999;28;20062;-78
2021/11/07 05:03:24;;;;;;;9.00;3.10;;;11.30;99.90;;;;;;5095654;28;20113;-77
2021/11/07 05:05:50;;;;;;;4.60;2.53;;;11.30;99.90;;;;;;5095930;28;20052;-77
2021/11/07 05:08:16;;;;;;;4.82;2.63;;;11.40;99.90;;;;;;5095634;28;20035;-77
2021/11/07 05:10:43;;;;;;;6.63;2.55;;;11.40;99.90;;;;;;5095526;28;20024;-77
2021/11/07 05:13:10;;;;;;;6.03;2.63;;;11.40;99.90;;;;;;5095711;28;20382;-77
2021/11/07 05:15:36;;;;;;;4.97;2.45;;;11.40;99.90;;;;;;5095481;28;20016;-77
2021/11/07 05:18:02;;;;;;;7.47;2.90;;;11.40;99.90;;;;;;5095188;28;20563;-78
2021/11/07 05:20:29;;;;;;;4.68;2.67;;;11.40;99.90;;;;;;5095413;28;20016;-79
2021/11/07 05:22:55;;;;;;;6.03;2.22;;;11.40;99.90;;;;;;5095357;28;20027;-78
2021/11/07 05:25:21;;;;;;;5.82;2.53;;;11.40;99.90;;;;;;5095563;28;20028;-76
2021/11/07 05:27:47;;;;;;;6.90;2.63;;;11.40;99.90;;;;;;5095228;28;20490;-79
2021/11/07 05:30:15;;;;;;;9.63;2.70;;;11.40;99.90;;;;;;5095175;28;20509;-80
2021/11/07 05:32:41;;;;;;;6.38;2.33;;;11.40;99.90;;;;;;5095310;28;20028;-77
2021/11/07 05:35:08;;;;;;;6.30;2.13;;;11.40;99.90;;;;;;5095112;28;20024;-79
2021/11/07 05:37:34;;;;;;;6.43;2.72;;;11.50;99.90;;;;;;5095036;28;20477;-77
2021/11/07 05:40:00;;;;;;;8.90;3.10;;;11.40;99.90;;;;;;5093737;28;20053;-77
2021/11/07 05:42:26;;;;;;;7.50;2.70;;;11.50;99.90;;;;;;5095496;28;20019;-80
2021/11/07 05:44:52;;;;;;;6.07;2.13;;;11.50;99.90;;;;;;5095167;28;20059;-77
2021/11/07 05:47:18;;;;;;;4.45;2.20;;;11.50;99.90;;;;;;5095437;28;20031;-79
2021/11/07 05:49:44;;;;;;;4.05;1.80;;;11.50;99.90;;;;;;5095325;28;20028;-77
2021/11/07 05:52:10;;;;;;;4.78;1.70;;;11.50;99.90;;;;;;5095042;28;20024;-77
2021/11/07 05:54:36;;;;;;;6.03;2.00;;;11.50;99.90;;;;;;5094505;28;20024;-78
2021/11/07 05:57:02;;;;;;;4.00;2.00;;;11.50;99.90;;;;;;5094638;28;20028;-79
2021/11/07 05:59:29;;;;;;;6.78;2.00;;;11.50;99.90;;;;;;5094584;28;20476;-76
2021/11/07 06:01:55;;;;;;;3.97;1.55;;;11.50;99.90;;;;;;5094568;28;20024;-80
2021/11/07 06:04:21;;;;;;;7.38;1.83;;;11.50;99.90;;;;;;5094492;28;20027;-78
2021/11/07 06:06:47;;;;;;;6.63;1.85;;;11.50;99.90;;;;;;5094478;28;20032;-77
2021/11/07 06:09:12;;;;;;;3.50;1.65;;;11.50;99.90;;;;;;5094359;28;20478;-76
2021/11/07 06:11:38;;;;;;;3.65;1.63;;;11.50;99.90;;;;;;5094981;28;20028;-78
2021/11/07 06:14:04;;;;;;;7.00;2.15;;;11.50;99.90;;;;;;5093001;28;20394;-78
2021/11/07 06:16:30;;;;;;;5.30;1.73;;;11.50;99.90;;;;;;5092997;28;20031;-79
2021/11/07 06:18:55;;;;;;;4.03;1.73;;;11.50;99.90;;;;;;5094046;28;20036;-77
2021/11/07 06:21:22;;;;;;;8.65;3.20;;;11.50;99.90;;;;;;5094425;28;20077;-78
2021/11/07 06:23:49;;;;;;;4.72;1.98;;;11.50;99.90;;;;;;5094117;28;20024;-76
2021/11/07 06:26:15;;;;;;;7.70;3.53;;;11.60;99.90;;;;;;5094684;28;20063;-76
2021/11/07 06:28:41;;;;;;;2.10;1.38;;;11.60;99.90;;;;;;5094092;28;20024;-76
2021/11/07 06:31:08;;;;;;;3.00;1.35;;;11.60;99.90;;;;;;5094031;28;20459;-78
2021/11/07 06:33:34;;;;;;;4.07;1.73;;;11.60;99.90;;;;;;5094181;28;20016;-76
2021/11/07 06:36:01;;;;;;;2.60;1.27;;;11.60;99.90;;;;;;5093968;28;20020;-78
2021/11/07 06:38:27;;;;;;;3.78;1.30;;;11.60;99.90;;;;;;5093889;28;20043;-77
2021/11/07 06:40:54;;;;;;;4.53;2.00;;;11.60;99.90;;;;;;5093825;28;20020;-78
2021/11/07 06:43:19;;;;;;;6.32;2.22;;;11.60;99.90;;;;;;5093757;28;20119;-79
2021/11/07 06:45:45;;;;;;;4.57;2.55;;;11.60;99.90;;;;;;5094283;28;20157;-76
2021/11/07 06:48:11;;;;;;;7.25;3.42;;;11.70;99.90;;;;;;5093733;28;20016;-78
2021/11/07 06:50:37;;;;;;;3.67;1.70;;;11.70;99.90;;;;;;5093688;28;20039;-78
2021/11/07 06:53:03;;;;;;;3.22;2.00;;;11.70;99.90;;;;;;5093597;28;20024;-77
2021/11/07 06:55:29;;;;;;;9.20;4.03;;;11.60;99.90;;;;;;5093647;28;20097;-77
2021/11/07 06:57:54;;;;;;;7.25;2.70;;;11.70;99.90;;;;;;5093561;28;20013;-79
2021/11/07 07:00:24;;;;;;;7.60;3.00;;;11.60;99.90;;;;;;5093535;28;20024;-77
2021/11/07 07:02:50;;;;;;;5.35;2.60;;;11.60;99.90;;;;;;5093547;28;20012;-78
2021/11/07 07:05:18;;;;;;;5.53;3.10;;;11.70;99.90;;;;;;5093746;28;20028;-78
2021/11/07 07:07:51;;;;;;;3.65;2.20;;;11.70;99.90;;;;;;5092974;28;20095;-77
2021/11/07 07:10:28;;;;;;;5.88;2.42;;;11.70;99.90;;;;;;5093977;28;20535;-77
2021/11/07 07:13:09;;;;;;;4.10;2.15;;;11.70;99.90;;;;;;5093351;28;20020;-78
2021/11/07 07:15:41;;;;;;;;;;;11.70;99.90;;;;;;5094130;28;20059;-79
2021/11/07 07:23:23;;;;;;;5.18;2.50;;;11.70;99.90;;;;;;5093092;28;20053;-79
2021/11/07 07:26:19;;;;;;;3.90;2.00;;;11.70;99.90;;;;;;5093274;28;20420;-78
2021/11/07 07:33:53;;;;;;;7.75;3.28;;;11.80;99.90;;;;;;5093121;28;20028;-76
2021/11/07 07:36:19;;;;;;;4.53;2.80;;;11.80;99.90;;;;;;5093272;28;20022;-78
2021/11/07 07:38:44;;;;;;;5.85;2.78;;;11.80;99.90;;;;;;5093408;28;20020;-78
2021/11/07 07:41:10;;;;;;;4.50;2.88;;;11.80;99.90;;;;;;5093071;28;20016;-78
2021/11/07 07:43:38;;;;;;;5.53;2.78;;;11.80;99.90;;;;;;5093401;28;20031;-79
2021/11/07 07:46:09;;;;;;;4.75;3.17;;;11.90;99.90;;;;;;5093081;28;20040;-78
2021/11/07 07:48:42;;;;;;;;;;;11.90;99.90;;;;;;5091929;28;20032;-78
2021/11/07 07:51:11;;;;;;;6.18;3.45;;;11.90;99.90;;;;;;5093369;28;20391;-79
2021/11/07 07:53:38;;;;;;;8.95;4.85;;;11.90;99.90;;;;;;5092934;28;20477;-77
2021/11/07 07:56:04;;;;;;;8.85;6.38;;;11.90;99.90;;;;;;5093006;28;20021;-78
2021/11/07 07:58:29;;;;;;;7.80;4.53;;;12.00;99.90;;;;;;5093006;28;20016;-79
2021/11/07 08:00:55;;;;;;;7.45;5.13;;;12.00;99.90;;;;;;5093177;28;20081;-78
2021/11/07 08:03:21;;;;;;;5.00;3.67;;;12.00;99.90;;;;;;5093203;28;20576;-77
2021/11/07 08:05:47;;;;;;;7.03;4.85;;;12.10;99.90;;;;;;5092880;28;20035;-77
2021/11/07 08:08:13;;;;;;;8.13;4.40;;;12.10;99.90;;;;;;5091581;28;20149;-78
2021/11/07 08:10:39;;;;;;;5.93;3.97;;;12.10;99.90;;;;;;5092733;28;20491;-77
2021/11/07 08:13:06;;;;;;;5.93;3.92;;;12.10;99.90;;;;;;5092743;28;20020;-78
2021/11/07 08:15:32;;;;;;;5.57;3.50;;;12.00;99.90;;;;;;5092820;28;20016;-77
2021/11/07 08:17:58;;;;;;;5.15;3.42;;;12.10;99.90;;;;;;5093063;28;20089;-78
2021/11/07 08:20:24;;;;;;;7.78;5.63;;;12.10;99.90;;;;;;5096604;28;20546;-78
2021/11/07 08:22:51;;;;;;;7.63;5.63;;;12.10;99.90;;;;;;5096519;28;20012;-77
2021/11/07 08:25:21;;;;;;;5.82;4.00;;;12.20;99.90;;;;;;5096445;28;20073;-80
2021/11/07 08:27:50;;;;;;;6.43;4.05;;;12.30;99.90;;;;;;5097029;28;20012;-78
2021/11/07 08:30:21;;;;;;;6.28;4.35;;;12.30;99.90;;;;;;5096431;28;20048;-79
2021/11/07 08:32:47;;;;;;;4.05;2.80;;;12.30;99.90;;;;;;5096245;28;20098;-77
2021/11/07 08:35:13;;;;;;;5.85;4.15;;;12.40;99.90;;;;;;5096240;28;20107;-79
2021/11/07 08:38:05;;;;;;;7.15;4.75;;;12.40;99.90;;;;;;5096496;28;20031;-76
2021/11/07 08:40:35;;;;;;;3.95;3.35;;;12.50;99.90;;;;;;5095702;28;20038;-78
2021/11/07 08:43:12;;;;;;;3.15;2.30;;;12.50;99.90;;;;;;5094560;28;20116;-77
2021/11/07 09:02:25;;;;;;;2.88;1.83;;;13.70;99.90;;;;;;5095759;28;20440;-78
2021/11/07 09:10:04;;;;;;;4.55;1.80;;;13.90;99.90;;;;;;5095957;28;20093;-79
2021/11/07 09:12:30;;;;;;;4.53;1.45;;;13.90;99.90;;;;;;5095825;28;20020;-79
2021/11/07 09:14:57;;;;;;;6.63;1.63;;;13.90;99.90;;;;;;5095691;28;20436;-77
2021/11/07 09:17:23;;;;;;;4.82;1.65;;;13.90;99.90;;;;;;5095710;28;20031;-79
2021/11/07 09:19:53;;;;;;;6.50;1.70;;;13.80;99.90;;;;;;5095025;28;20177;-78
2021/11/07 09:22:28;;;;;;;8.52;1.67;;;13.90;99.90;;;;;;5095410;28;20394;-79
2021/11/07 09:24:57;;;;;;;6.13;1.73;;;14.20;99.90;;;;;;5093845;28;20481;-77
2021/11/07 09:27:34;;;;;;;8.00;2.00;;;14.10;99.90;;;;;;5094037;28;20110;-78
2021/11/07 09:30:10;;;;;;;5.13;1.98;;;14.00;99.90;;;;;;5095142;28;20366;-79
2021/11/07 09:37:49;;;;;;;11.77;1.98;;;14.60;99.90;;;;;;5095145;28;20031;-79
2021/11/07 09:40:17;;;;;;;5.22;1.85;;;14.50;99.90;;;;;;5095318;28;20099;-77
2021/11/07 09:45:24;;;;;;;8.65;2.45;;;14.70;99.90;;;;;;5095272;28;20070;-80
2021/11/07 09:47:56;;;;;;;9.45;1.95;;;14.90;99.90;;;;;;5095146;28;20043;-79
2021/11/07 09:50:22;;;;;;;4.88;1.65;;;15.00;99.90;;;;;;5095125;28;20023;-78
2021/11/07 09:52:50;;;;;;;7.68;2.25;;;14.90;99.90;;;;;;5094654;28;20029;-79
2021/11/07 09:55:21;;;;;;;7.97;1.90;;;14.80;99.90;;;;;;5094732;28;20023;-77
2021/11/07 09:57:50;;;;;;;8.13;2.25;;;14.80;99.90;;;;;;5094705;28;20473;-79
2021/11/07 10:00:22;;;;;;;8.38;1.80;;;14.90;99.90;;;;;;5094639;28;20490;-78
2021/11/07 10:02:48;;;;;;;9.18;2.92;;;15.00;99.90;;;;;;5094593;28;20055;-79
2021/11/07 10:05:17;;;;;;;6.15;1.67;;;15.00;99.90;;;;;;5093241;28;20044;-77
2021/11/07 10:07:44;;;;;;;9.27;2.25;;;15.00;99.90;;;;;;5094862;28;20455;-78
2021/11/07 10:10:21;;;;;;;8.50;2.35;;;15.10;99.90;;;;;;5094347;28;20008;-77
2021/11/07 10:12:56;;;;;;;8.48;2.83;;;15.10;99.90;;;;;;5094906;28;20031;-80
2021/11/07 10:15:33;;;;;;;10.88;2.78;;;15.20;99.90;;;;;;5094422;28;20012;-80
2021/11/07 10:18:05;;;;;;;11.68;3.20;;;15.30;99.90;;;;;;5092605;28;20047;-80
2021/11/07 10:20:58;;;;;;;11.65;2.50;;;15.10;99.90;;;;;;5094221;28;20073;-77
2021/11/07 10:23:57;;;;;;;11.77;2.67;;;15.00;99.90;;;;;;5093553;28;20036;-77
2021/11/07 10:28:47;;;;;;;14.32;2.65;;;14.60;99.90;;;;;;5094059;28;20389;-76
2021/11/07 10:31:24;;;;;;;14.38;3.03;;;14.50;99.90;;;;;;5094084;28;20028;-79
2021/11/07 10:39:50;;;;;;;;;;;14.70;99.90;;;;;;5094098;28;20070;-77
2021/11/07 10:52:39;;;;;;;12.52;3.50;;;14.60;99.90;;;;;;5093482;28;20461;-78
2021/11/07 10:55:07;;;;;;;10.68;3.10;;;14.70;99.90;;;;;;5093578;28;20031;-77
2021/11/07 10:57:33;;;;;;;11.90;3.00;;;14.70;99.90;;;;;;5093679;28;20023;-79
2021/11/07 11:00:35;;;;;;;13.10;3.47;;;14.80;99.90;;;;;;5092308;28;20161;-79
2021/11/07 11:03:16;;;;;;;18.23;3.38;;;14.80;99.90;;;;;;5093883;28;20016;-79
2021/11/07 11:05:54;;;;;;;9.07;2.65;;;14.70;99.90;;;;;;5093559;28;20024;-79
2021/11/07 11:08:36;;;;;;;15.32;4.07;;;14.60;99.90;;;;;;5093445;28;20020;-77
2021/11/07 11:11:12;;;;;;;14.45;2.67;;;14.70;99.90;;;;;;5093773;28;20086;-77
2021/11/07 11:16:36;;;;;;;19.15;3.85;;;14.70;99.90;;;;;;5093987;28;20020;-79
2021/11/07 11:38:28;;;;;;;16.73;3.47;;;14.50;99.90;;;;;;5093759;28;20153;-80
2021/11/07 11:45:22;;;;;;;16.40;3.78;;;14.60;99.90;;;;;;5093428;28;20016;-79
2021/11/07 11:48:17;;;;;;;15.90;3.13;;;14.60;99.90;;;;;;5093359;28;20024;-78
2021/11/07 11:59:31;;;;;;;13.43;3.22;;;14.70;99.90;;;;;;5034867;28;20033;-80
2021/11/07 12:02:27;;;;;;;15.57;3.40;;;14.80;99.90;;;;;;5035022;28;20100;-78
2021/11/07 12:08:16;;;;;;;11.27;3.22;;;14.90;99.90;;;;;;5096598;28;20051;-79
2021/11/07 12:10:49;;;;;;;18.98;4.22;;;14.80;99.90;;;;;;5095439;28;20031;-79
2021/11/07 12:13:54;;;;;;;10.80;3.33;;;14.70;99.90;;;;;;5096924;28;20020;-77
2021/11/07 12:16:44;;;;;;;14.63;3.47;;;14.70;99.90;;;;;;5097252;28;20016;-77
2021/11/07 12:19:12;;;;;;;16.20;3.50;;;14.60;99.90;;;;;;5096413;28;20039;-77
2021/11/07 12:22:00;;;;;;;15.32;2.80;;;14.70;99.90;;;;;;5096732;28;20032;-80
2021/11/07 12:24:33;;;;;;;12.85;3.15;;;14.70;99.90;;;;;;5096842;28;20497;-79
2021/11/07 12:27:21;;;;;;;11.38;2.67;;;14.70;99.90;;;;;;5096747;28;20111;-79
2021/11/07 12:29:48;;;;;;;13.90;2.80;;;14.70;99.90;;;;;;5096667;28;20016;-78
2021/11/07 12:32:15;;;;;;;14.70;3.53;;;14.70;99.90;;;;;;5096360;28;20107;-79
2021/11/07 12:40:39;;;;;;;15.70;2.97;;;14.70;99.90;;;;;;5096265;28;20038;-78
2021/11/07 12:43:05;;;;;;;;;;;14.80;99.90;;;;;;5095059;28;20024;-77
2021/11/07 12:45:42;;;;;;;21.77;3.58;;;14.70;99.90;;;;;;5096153;28;19953;-78
2021/11/07 12:48:10;;;;;;;11.40;2.55;;;14.50;99.90;;;;;;5094523;28;20032;-79
2021/11/07 12:51:13;;;;;;;13.77;2.65;;;14.40;99.90;;;;;;5094744;28;20032;-78
2021/11/07 12:53:58;;;;;;;15.57;3.72;;;14.30;99.90;;;;;;5053728;28;20474;-79
2021/11/07 12:56:35;;;;;;;11.52;2.72;;;14.30;99.90;;;;;;5096501;28;20107;-77
2021/11/07 12:59:07;;;;;;;11.10;3.05;;;14.30;99.90;;;;;;5094427;28;20049;-79
2021/11/07 13:01:59;;;;;;;14.30;2.60;;;14.40;99.90;;;;;;5096125;28;20535;-78
2021/11/07 13:04:27;;;;;;;12.80;2.60;;;14.50;99.90;;;;;;5095284;28;20489;-78
2021/11/07 13:06:57;;;;;;;14.68;2.78;;;14.60;99.90;;;;;;5095704;28;20052;-77
2021/11/07 13:09:31;;;;;;;11.95;2.92;;;14.70;99.90;;;;;;5095626;28;20020;-78
2021/11/07 13:12:07;;;;;;;19.00;3.78;;;14.70;99.90;;;;;;5095644;28;20032;-77
2021/11/07 13:14:53;;;;;;;13.10;3.20;;;14.70;99.90;;;;;;5093945;28;20558;-79
2021/11/07 13:17:32;;;;;;;13.00;2.63;;;14.70;99.90;;;;;;5095798;28;20035;-78
2021/11/07 13:20:37;;;;;;;18.05;4.10;;;14.60;99.90;;;;;;5095734;28;20535;-79
2021/11/07 13:23:11;;;;;;;12.48;2.85;;;14.50;99.90;;;;;;5095256;28;20036;-78
2021/11/07 13:26:05;;;;;;;14.95;3.72;;;14.50;99.90;;;;;;5095441;28;20075;-78
2021/11/07 13:28:35;;;;;;;15.20;2.95;;;14.60;99.90;;;;;;5095300;28;20486;-77
2021/11/07 13:33:42;;;;;;;13.23;3.03;;;14.60;99.90;;;;;;5094892;28;20109;-77
2021/11/07 13:36:10;;;;;;;16.85;3.75;;;14.60;99.90;;;;;;5095111;28;20501;-77
2021/11/07 13:39:03;;;;;;;15.65;3.28;;;14.60;99.90;;;;;;5095063;28;20050;-78
2021/11/07 13:41:29;;;;;;;14.43;2.90;;;14.60;99.90;;;;;;5095062;28;20027;-77
2021/11/07 13:44:02;;;;;;;14.35;3.03;;;14.60;99.90;;;;;;5095147;28;20021;-78
2021/11/07 13:46:27;;;;;;;17.73;3.22;;;14.60;99.90;;;;;;5095153;28;20024;-77
2021/11/07 13:49:02;;;;;;;13.90;3.75;;;14.60;99.90;;;;;;5095125;28;20535;-77
2021/11/07 13:51:28;;;;;;;12.63;2.80;;;14.60;99.90;;;;;;5095359;28;20107;-79
2021/11/07 13:54:00;;;;;;;14.52;2.50;;;14.50;99.90;;;;;;5094736;28;20027;-78
2021/11/07 13:56:27;;;;;;;14.48;2.90;;;14.60;99.90;;;;;;5094752;28;20402;-78
2021/11/07 13:58:53;;;;;;;16.33;3.80;;;14.50;99.90;;;;;;5093443;28;20490;-78
2021/11/07 14:01:19;;;;;;;13.77;3.47;;;14.50;99.90;;;;;;5094634;28;20055;-78
2021/11/07 14:03:51;;;;;;;18.98;3.38;;;14.40;99.90;;;;;;5094855;28;20524;-79
2021/11/07 14:06:23;;;;;;;19.05;2.85;;;14.50;99.90;;;;;;5094892;28;20513;-80
2021/11/07 14:08:58;;;;;;;13.73;3.10;;;14.40;99.90;;;;;;5094448;28;20016;-78
2021/11/07 14:11:26;;;;;;;14.95;3.15;;;14.40;99.90;;;;;;5094783;28;20084;-77
2021/11/07 14:13:55;;;;;;;16.33;3.00;;;14.40;99.90;;;;;;5094606;28;20016;-77
2021/11/07 14:16:35;;;;;;;13.90;2.67;;;14.40;99.90;;;;;;5094231;28;20054;-79
2021/11/07 14:19:06;;;;;;;10.68;2.65;;;14.40;99.90;;;;;;5094270;28;20048;-78
2021/11/07 14:21:36;;;;;;;15.52;3.58;;;14.40;99.90;;;;;;5093306;28;20075;-79
2021/11/07 14:26:40;;;;;;;13.45;3.63;;;14.50;99.90;;;;;;5094741;28;20505;-77
2021/11/07 14:29:12;;;;;;;11.40;2.90;;;14.50;99.90;;;;;;5092583;28;20166;-79
2021/11/07 14:34:23;;;;;;;11.60;2.95;;;14.40;99.90;;;;;;5094284;28;20104;-77
2021/11/07 14:37:00;;;;;;;11.63;2.90;;;14.50;99.90;;;;;;5094036;28;20027;-77
2021/11/07 14:42:53;;;;;;;15.95;3.83;;;14.40;99.90;;;;;;5094172;28;20069;-79
2021/11/07 14:53:24;;;;;;;11.95;2.83;;;14.40;99.90;;;;;;5093442;28;20028;-77
2021/11/07 14:56:23;;;;;;;14.60;3.47;;;14.40;99.90;;;;;;5093687;28;20016;-78
2021/11/07 14:59:00;;;;;;;13.30;3.42;;;14.40;99.90;;;;;;5093550;28;20066;-78
2021/11/07 15:04:03;;;;;;;13.02;3.40;;;14.40;99.90;;;;;;5093604;28;20039;-80
2021/11/07 15:09:26;;;;;;;13.38;3.17;;;14.30;99.90;;;;;;5093276;28;20401;-79
2021/11/07 15:12:33;;;;;;;9.93;2.80;;;14.20;99.90;;;;;;5092195;28;20028;-78
2021/11/07 15:15:26;;;;;;;12.95;2.78;;;14.20;99.90;;;;;;5091874;28;20117;-77
2021/11/07 15:18:05;;;;;;;12.48;2.58;;;14.10;99.90;;;;;;5091897;28;20185;-77
2021/11/07 15:20:46;;;;;;;11.93;2.60;;;14.10;99.90;;;;;;5091807;28;20386;-79
2021/11/07 15:23:35;;;;;;;9.57;2.50;;;14.10;99.90;;;;;;5091585;28;20021;-76
2021/11/07 15:26:23;;;;;;;12.90;3.05;;;14.10;99.90;;;;;;5093827;28;20024;-77
2021/11/07 15:29:04;;;;;;;19.33;3.53;;;14.10;99.90;;;;;;5093108;28;20024;-78
2021/11/07 15:31:31;;;;;;;10.90;2.97;;;14.00;99.90;;;;;;5091829;28;20023;-78
2021/11/07 15:34:01;;;;;;;14.35;3.00;;;14.00;99.90;;;;;;5093393;28;20028;-79
2021/11/07 15:36:29;;;;;;;17.38;4.10;;;14.10;99.90;;;;;;5093533;28;20030;-78
2021/11/07 15:39:10;;;;;;;9.00;2.45;;;14.10;99.90;;;;;;5093218;28;20055;-78
2021/11/07 15:41:36;;;;;;;13.23;3.05;;;14.00;99.90;;;;;;5093740;28;20012;-78